sensor_id;sensor_type;location;lat;lon;timestamp;temperature;humidity
35445;DHT22;21562;49.476;6.086;2024-03-29T00:00:37;11.40;1.00
35445;DHT22;21562;49.476;6.086;2024-03-29T00:03:03;11.40;1.00
35445;DHT22;21562;49.476;6.086;2024-03-29T00:05:29;11.40;1.00
35445;DHT22;21562;49.476;6.086;2024-03-29T00:07:55;11.40;1.00
35445;DHT22;21562;49.476;6.086;2024-03-29T00:10:21;11.00;1.00
35445;DHT22;21562;49.476;6.086;2024-03-29T00:12:46;10.80;1.00
35445;DHT22;21562;49.476;6.086;2024-03-29T00:15:12;10.70;1.00
35445;DHT22;21562;49.476;6.086;2024-03-29T00:17:38;10.60;1.00
35445;DHT22;21562;49.476;6.086;2024-03-29T00:20:05;10.60;1.00
35445;DHT22;21562;49.476;6.086;2024-03-29T00:22:31;10.70;1.00
35445;DHT22;21562;49.476;6.086;2024-03-29T00:24:57;10.70;1.00
35445;DHT22;21562;49.476;6.086;2024-03-29T00:27:22;10.60;1.00
35445;DHT22;21562;49.476;6.086;2024-03-29T00:29:51;10.70;1.00
35445;DHT22;21562;49.476;6.086;2024-03-29T00:32:23;10.90;1.00
35445;DHT22;21562;49.476;6.086;2024-03-29T00:34:52;11.00;1.00
35445;DHT22;21562;49.476;6.086;2024-03-29T00:37:20;11.10;1.00
35445;DHT22;21562;49.476;6.086;2024-03-29T00:39:45;10.80;1.00
35445;DHT22;21562;49.476;6.086;2024-03-29T00:42:11;10.70;1.00
35445;DHT22;21562;49.476;6.086;2024-03-29T00:44:45;10.90;1.00
35445;DHT22;21562;49.476;6.086;2024-03-29T00:47:11;11.00;1.00
35445;DHT22;21562;49.476;6.086;2024-03-29T00:49:37;11.00;1.00
35445;DHT22;21562;49.476;6.086;2024-03-29T00:52:03;11.10;1.00
35445;DHT22;21562;49.476;6.086;2024-03-29T00:54:29;11.30;1.00
35445;DHT22;21562;49.476;6.086;2024-03-29T00:56:55;11.40;1.00
35445;DHT22;21562;49.476;6.086;2024-03-29T00:59:21;11.50;1.00
35445;DHT22;21562;49.476;6.086;2024-03-29T01:01:47;11.60;1.00
35445;DHT22;21562;49.476;6.086;2024-03-29T01:04:13;11.60;1.00
35445;DHT22;21562;49.476;6.086;2024-03-29T01:06:39;11.80;1.00
35445;DHT22;21562;49.476;6.086;2024-03-29T01:09:08;11.80;1.00
35445;DHT22;21562;49.476;6.086;2024-03-29T01:11:37;11.80;1.00
35445;DHT22;21562;49.476;6.086;2024-03-29T01:14:04;11.90;1.00
35445;DHT22;21562;49.476;6.086;2024-03-29T01:16:31;11.90;1.00
35445;DHT22;21562;49.476;6.086;2024-03-29T01:19:00;11.60;1.00
35445;DHT22;21562;49.476;6.086;2024-03-29T01:21:26;11.60;1.00
35445;DHT22;21562;49.476;6.086;2024-03-29T01:23:52;11.60;1.00
35445;DHT22;21562;49.476;6.086;2024-03-29T01:26:18;11.50;1.00
35445;DHT22;21562;49.476;6.086;2024-03-29T01:28:44;11.70;1.00
35445;DHT22;21562;49.476;6.086;2024-03-29T01:31:11;11.80;1.00
35445;DHT22;21562;49.476;6.086;2024-03-29T01:33:38;11.70;1.00
35445;DHT22;21562;49.476;6.086;2024-03-29T01:36:04;11.80;1.00
35445;DHT22;21562;49.476;6.086;2024-03-29T01:38:31;12.00;1.00
35445;DHT22;21562;49.476;6.086;2024-03-29T01:40:56;12.00;1.00
35445;DHT22;21562;49.476;6.086;2024-03-29T01:43:22;12.00;1.00
35445;DHT22;21562;49.476;6.086;2024-03-29T01:45:50;12.00;1.00
35445;DHT22;21562;49.476;6.086;2024-03-29T01:48:18;12.10;1.00
35445;DHT22;21562;49.476;6.086;2024-03-29T01:50:45;12.20;1.00
35445;DHT22;21562;49.476;6.086;2024-03-29T01:53:11;12.20;1.00
35445;DHT22;21562;49.476;6.086;2024-03-29T01:55:37;12.30;1.00
35445;DHT22;21562;49.476;6.086;2024-03-29T01:58:04;12.30;1.00
35445;DHT22;21562;49.476;6.086;2024-03-29T02:00:31;12.30;1.00
35445;DHT22;21562;49.476;6.086;2024-03-29T02:02:57;12.30;1.00
35445;DHT22;21562;49.476;6.086;2024-03-29T02:05:23;12.40;1.00
35445;DHT22;21562;49.476;6.086;2024-03-29T02:07:50;12.40;1.00
35445;DHT22;21562;49.476;6.086;2024-03-29T02:10:16;12.40;1.00
35445;DHT22;21562;49.476;6.086;2024-03-29T02:12:42;12.30;1.00
35445;DHT22;21562;49.476;6.086;2024-03-29T02:15:08;12.30;1.00
35445;DHT22;21562;49.476;6.086;2024-03-29T02:17:34;12.30;1.00
35445;DHT22;21562;49.476;6.086;2024-03-29T02:19:59;12.40;1.00
35445;DHT22;21562;49.476;6.086;2024-03-29T02:22:27;12.10;1.00
35445;DHT22;21562;49.476;6.086;2024-03-29T02:24:54;12.00;1.00
35445;DHT22;21562;49.476;6.086;2024-03-29T02:27:21;11.90;1.00
35445;DHT22;21562;49.476;6.086;2024-03-29T02:29:48;11.90;1.00
35445;DHT22;21562;49.476;6.086;2024-03-29T02:32:13;11.90;1.00
35445;DHT22;21562;49.476;6.086;2024-03-29T02:34:39;12.00;1.00
35445;DHT22;21562;49.476;6.086;2024-03-29T02:37:05;12.10;1.00
35445;DHT22;21562;49.476;6.086;2024-03-29T02:39:31;12.20;1.00
35445;DHT22;21562;49.476;6.086;2024-03-29T02:41:57;12.30;1.00
35445;DHT22;21562;49.476;6.086;2024-03-29T02:44:23;12.30;1.00
35445;DHT22;21562;49.476;6.086;2024-03-29T02:46:48;12.10;1.00
35445;DHT22;21562;49.476;6.086;2024-03-29T02:49:14;11.80;1.00
35445;DHT22;21562;49.476;6.086;2024-03-29T02:51:40;11.30;1.00
35445;DHT22;21562;49.476;6.086;2024-03-29T02:54:05;11.00;2.80
35445;DHT22;21562;49.476;6.086;2024-03-29T02:56:31;10.70;25.70
35445;DHT22;21562;49.476;6.086;2024-03-29T02:58:57;11.00;24.00
35445;DHT22;21562;49.476;6.086;2024-03-29T03:01:22;11.10;15.20
35445;DHT22;21562;49.476;6.086;2024-03-29T03:03:48;11.30;10.10
35445;DHT22;21562;49.476;6.086;2024-03-29T03:06:14;11.50;6.90
35445;DHT22;21562;49.476;6.086;2024-03-29T03:08:40;11.30;14.60
35445;DHT22;21562;49.476;6.086;2024-03-29T03:11:24;11.20;20.90
35445;DHT22;21562;49.476;6.086;2024-03-29T03:13:49;11.10;28.60
35445;DHT22;21562;49.476;6.086;2024-03-29T03:16:15;11.20;28.50
35445;DHT22;21562;49.476;6.086;2024-03-29T03:18:41;10.90;39.40
35445;DHT22;21562;49.476;6.086;2024-03-29T03:21:06;10.90;43.70
35445;DHT22;21562;49.476;6.086;2024-03-29T03:23:32;10.80;50.60
35445;DHT22;21562;49.476;6.086;2024-03-29T03:25:59;10.70;66.20
35445;DHT22;21562;49.476;6.086;2024-03-29T03:28:26;10.60;64.60
35445;DHT22;21562;49.476;6.086;2024-03-29T03:30:53;10.60;84.30
35445;DHT22;21562;49.476;6.086;2024-03-29T03:33:19;10.70;85.30
35445;DHT22;21562;49.476;6.086;2024-03-29T03:35:45;10.60;97.40
35445;DHT22;21562;49.476;6.086;2024-03-29T03:38:11;10.80;98.80
35445;DHT22;21562;49.476;6.086;2024-03-29T03:40:37;11.00;95.50
35445;DHT22;21562;49.476;6.086;2024-03-29T03:43:04;10.90;99.90
35445;DHT22;21562;49.476;6.086;2024-03-29T03:45:34;10.80;99.90
35445;DHT22;21562;49.476;6.086;2024-03-29T03:48:02;11.00;99.90
35445;DHT22;21562;49.476;6.086;2024-03-29T03:50:28;11.00;99.90
35445;DHT22;21562;49.476;6.086;2024-03-29T03:52:53;11.00;99.90
35445;DHT22;21562;49.476;6.086;2024-03-29T03:55:19;10.90;99.90
35445;DHT22;21562;49.476;6.086;2024-03-29T03:57:45;11.00;99.90
35445;DHT22;21562;49.476;6.086;2024-03-29T04:00:11;10.80;99.90
35445;DHT22;21562;49.476;6.086;2024-03-29T04:02:37;10.80;99.90
35445;DHT22;21562;49.476;6.086;2024-03-29T04:05:03;11.00;99.90
35445;DHT22;21562;49.476;6.086;2024-03-29T04:07:29;10.90;99.90
35445;DHT22;21562;49.476;6.086;2024-03-29T04:09:54;10.90;99.90
35445;DHT22;21562;49.476;6.086;2024-03-29T04:12:20;11.20;99.90
35445;DHT22;21562;49.476;6.086;2024-03-29T04:14:46;11.30;99.90
35445;DHT22;21562;49.476;6.086;2024-03-29T04:17:12;11.60;99.90
35445;DHT22;21562;49.476;6.086;2024-03-29T04:19:37;11.60;99.90
35445;DHT22;21562;49.476;6.086;2024-03-29T04:22:03;11.70;99.90
35445;DHT22;21562;49.476;6.086;2024-03-29T04:24:29;11.70;99.90
35445;DHT22;21562;49.476;6.086;2024-03-29T04:26:55;11.30;99.90
35445;DHT22;21562;49.476;6.086;2024-03-29T04:29:21;11.40;99.90
35445;DHT22;21562;49.476;6.086;2024-03-29T04:31:49;11.20;99.90
35445;DHT22;21562;49.476;6.086;2024-03-29T04:34:15;11.30;99.90
35445;DHT22;21562;49.476;6.086;2024-03-29T04:36:41;11.40;99.90
35445;DHT22;21562;49.476;6.086;2024-03-29T04:39:06;11.20;99.90
35445;DHT22;21562;49.476;6.086;2024-03-29T04:41:32;11.10;99.90
35445;DHT22;21562;49.476;6.086;2024-03-29T04:44:03;11.20;99.90
35445;DHT22;21562;49.476;6.086;2024-03-29T04:46:30;11.30;99.90
35445;DHT22;21562;49.476;6.086;2024-03-29T04:48:57;11.20;99.90
35445;DHT22;21562;49.476;6.086;2024-03-29T04:51:22;11.10;99.90
35445;DHT22;21562;49.476;6.086;2024-03-29T04:53:48;11.30;99.90
35445;DHT22;21562;49.476;6.086;2024-03-29T04:56:14;11.40;99.90
35445;DHT22;21562;49.476;6.086;2024-03-29T04:58:40;11.60;99.90
35445;DHT22;21562;49.476;6.086;2024-03-29T05:01:05;11.10;99.90
35445;DHT22;21562;49.476;6.086;2024-03-29T05:03:32;10.80;99.90
35445;DHT22;21562;49.476;6.086;2024-03-29T05:05:58;10.50;99.90
35445;DHT22;21562;49.476;6.086;2024-03-29T05:08:23;10.40;99.90
35445;DHT22;21562;49.476;6.086;2024-03-29T05:10:50;10.50;99.90
35445;DHT22;21562;49.476;6.086;2024-03-29T05:13:17;10.60;99.90
35445;DHT22;21562;49.476;6.086;2024-03-29T05:15:44;10.80;99.90
35445;DHT22;21562;49.476;6.086;2024-03-29T05:18:09;10.70;99.90
35445;DHT22;21562;49.476;6.086;2024-03-29T05:20:35;11.10;99.90
35445;DHT22;21562;49.476;6.086;2024-03-29T05:23:01;10.90;99.90
35445;DHT22;21562;49.476;6.086;2024-03-29T05:25:27;10.90;99.90
35445;DHT22;21562;49.476;6.086;2024-03-29T05:27:53;11.00;99.90
35445;DHT22;21562;49.476;6.086;2024-03-29T05:30:19;10.90;99.90
35445;DHT22;21562;49.476;6.086;2024-03-29T05:32:45;11.00;99.90
35445;DHT22;21562;49.476;6.086;2024-03-29T05:35:11;10.90;99.90
35445;DHT22;21562;49.476;6.086;2024-03-29T05:37:37;10.70;99.90
35445;DHT22;21562;49.476;6.086;2024-03-29T05:40:03;10.50;99.90
35445;DHT22;21562;49.476;6.086;2024-03-29T05:42:33;10.40;99.90
35445;DHT22;21562;49.476;6.086;2024-03-29T05:45:00;10.60;99.90
35445;DHT22;21562;49.476;6.086;2024-03-29T05:47:25;10.80;99.90
35445;DHT22;21562;49.476;6.086;2024-03-29T05:49:53;10.70;99.90
35445;DHT22;21562;49.476;6.086;2024-03-29T05:52:19;10.80;99.90
35445;DHT22;21562;49.476;6.086;2024-03-29T05:54:46;10.60;99.90
35445;DHT22;21562;49.476;6.086;2024-03-29T05:57:12;10.60;99.90
35445;DHT22;21562;49.476;6.086;2024-03-29T05:59:37;10.60;99.90
35445;DHT22;21562;49.476;6.086;2024-03-29T06:02:04;10.60;99.90
35445;DHT22;21562;49.476;6.086;2024-03-29T06:04:29;10.50;99.90
35445;DHT22;21562;49.476;6.086;2024-03-29T06:07:02;10.40;99.90
35445;DHT22;21562;49.476;6.086;2024-03-29T06:09:28;10.40;99.90
35445;DHT22;21562;49.476;6.086;2024-03-29T06:11:55;10.40;99.90
35445;DHT22;21562;49.476;6.086;2024-03-29T06:14:25;10.30;99.90
35445;DHT22;21562;49.476;6.086;2024-03-29T06:17:09;10.40;99.90
35445;DHT22;21562;49.476;6.086;2024-03-29T06:19:54;10.60;99.90
35445;DHT22;21562;49.476;6.086;2024-03-29T06:22:24;10.80;99.90
35445;DHT22;21562;49.476;6.086;2024-03-29T06:24:51;10.90;99.90
35445;DHT22;21562;49.476;6.086;2024-03-29T06:27:23;10.80;99.90
35445;DHT22;21562;49.476;6.086;2024-03-29T06:29:49;10.60;99.90
35445;DHT22;21562;49.476;6.086;2024-03-29T06:32:15;10.80;99.90
35445;DHT22;21562;49.476;6.086;2024-03-29T06:34:47;10.70;99.90
35445;DHT22;21562;49.476;6.086;2024-03-29T06:37:13;10.40;99.90
35445;DHT22;21562;49.476;6.086;2024-03-29T06:39:39;10.60;99.90
35445;DHT22;21562;49.476;6.086;2024-03-29T06:42:05;10.60;99.90
35445;DHT22;21562;49.476;6.086;2024-03-29T06:44:34;10.60;99.90
35445;DHT22;21562;49.476;6.086;2024-03-29T06:47:00;10.60;99.90
35445;DHT22;21562;49.476;6.086;2024-03-29T06:49:26;10.60;99.90
35445;DHT22;21562;49.476;6.086;2024-03-29T06:51:51;10.50;99.90
35445;DHT22;21562;49.476;6.086;2024-03-29T06:54:19;10.80;99.90
35445;DHT22;21562;49.476;6.086;2024-03-29T06:56:48;11.00;99.90
35445;DHT22;21562;49.476;6.086;2024-03-29T06:59:14;10.90;99.90
35445;DHT22;21562;49.476;6.086;2024-03-29T07:01:39;10.90;99.90
35445;DHT22;21562;49.476;6.086;2024-03-29T07:04:05;10.70;99.90
35445;DHT22;21562;49.476;6.086;2024-03-29T07:06:31;10.80;99.90
35445;DHT22;21562;49.476;6.086;2024-03-29T07:08:57;10.90;99.90
35445;DHT22;21562;49.476;6.086;2024-03-29T07:11:23;11.10;99.90
35445;DHT22;21562;49.476;6.086;2024-03-29T07:13:48;11.00;99.90
35445;DHT22;21562;49.476;6.086;2024-03-29T07:16:14;11.00;99.90
35445;DHT22;21562;49.476;6.086;2024-03-29T07:18:40;11.20;99.90
35445;DHT22;21562;49.476;6.086;2024-03-29T07:21:06;11.40;99.90
35445;DHT22;21562;49.476;6.086;2024-03-29T07:23:31;11.50;99.90
35445;DHT22;21562;49.476;6.086;2024-03-29T07:26:02;11.70;99.90
35445;DHT22;21562;49.476;6.086;2024-03-29T07:28:28;11.80;99.90
35445;DHT22;21562;49.476;6.086;2024-03-29T07:30:54;11.90;99.90
35445;DHT22;21562;49.476;6.086;2024-03-29T07:33:21;12.00;99.90
35445;DHT22;21562;49.476;6.086;2024-03-29T07:35:49;12.20;99.90
35445;DHT22;21562;49.476;6.086;2024-03-29T07:38:17;12.30;99.90
35445;DHT22;21562;49.476;6.086;2024-03-29T07:40:46;12.30;99.90
35445;DHT22;21562;49.476;6.086;2024-03-29T07:43:12;12.40;99.90
35445;DHT22;21562;49.476;6.086;2024-03-29T07:45:41;12.50;99.90
35445;DHT22;21562;49.476;6.086;2024-03-29T07:48:12;12.60;99.90
35445;DHT22;21562;49.476;6.086;2024-03-29T07:50:41;12.50;99.90
35445;DHT22;21562;49.476;6.086;2024-03-29T07:53:08;12.50;99.90
35445;DHT22;21562;49.476;6.086;2024-03-29T07:55:40;12.60;99.90
35445;DHT22;21562;49.476;6.086;2024-03-29T07:58:07;12.70;99.90
35445;DHT22;21562;49.476;6.086;2024-03-29T08:00:34;12.70;99.90
35445;DHT22;21562;49.476;6.086;2024-03-29T08:03:01;12.80;99.90
35445;DHT22;21562;49.476;6.086;2024-03-29T08:05:29;12.80;99.90
35445;DHT22;21562;49.476;6.086;2024-03-29T08:07:55;12.90;99.90
35445;DHT22;21562;49.476;6.086;2024-03-29T08:10:21;12.80;99.90
35445;DHT22;21562;49.476;6.086;2024-03-29T08:12:46;12.80;99.90
35445;DHT22;21562;49.476;6.086;2024-03-29T08:15:12;12.90;99.90
35445;DHT22;21562;49.476;6.086;2024-03-29T08:17:38;13.10;99.90
35445;DHT22;21562;49.476;6.086;2024-03-29T08:20:04;13.30;99.90
35445;DHT22;21562;49.476;6.086;2024-03-29T08:22:30;13.30;99.90
35445;DHT22;21562;49.476;6.086;2024-03-29T08:24:59;13.30;99.90
35445;DHT22;21562;49.476;6.086;2024-03-29T08:27:26;13.30;99.90
35445;DHT22;21562;49.476;6.086;2024-03-29T08:29:52;13.40;99.90
35445;DHT22;21562;49.476;6.086;2024-03-29T08:32:17;13.30;99.90
35445;DHT22;21562;49.476;6.086;2024-03-29T08:34:44;13.20;99.90
35445;DHT22;21562;49.476;6.086;2024-03-29T08:37:09;13.10;99.90
35445;DHT22;21562;49.476;6.086;2024-03-29T08:39:35;13.10;99.90
35445;DHT22;21562;49.476;6.086;2024-03-29T08:42:04;13.10;99.90
35445;DHT22;21562;49.476;6.086;2024-03-29T08:44:35;13.20;99.90
35445;DHT22;21562;49.476;6.086;2024-03-29T08:47:01;13.20;99.90
35445;DHT22;21562;49.476;6.086;2024-03-29T08:49:28;13.20;99.90
35445;DHT22;21562;49.476;6.086;2024-03-29T08:51:54;13.10;99.90
35445;DHT22;21562;49.476;6.086;2024-03-29T08:54:20;13.10;99.90
35445;DHT22;21562;49.476;6.086;2024-03-29T08:56:46;13.20;99.90
35445;DHT22;21562;49.476;6.086;2024-03-29T08:59:12;13.30;99.90
35445;DHT22;21562;49.476;6.086;2024-03-29T09:01:46;13.20;99.90
35445;DHT22;21562;49.476;6.086;2024-03-29T09:04:14;13.20;99.90
35445;DHT22;21562;49.476;6.086;2024-03-29T09:06:41;13.20;99.90
35445;DHT22;21562;49.476;6.086;2024-03-29T09:09:07;13.30;99.90
35445;DHT22;21562;49.476;6.086;2024-03-29T09:11:33;13.10;99.90
35445;DHT22;21562;49.476;6.086;2024-03-29T09:13:59;13.10;99.90
35445;DHT22;21562;49.476;6.086;2024-03-29T09:16:25;13.20;99.90
35445;DHT22;21562;49.476;6.086;2024-03-29T09:18:51;13.40;99.90
35445;DHT22;21562;49.476;6.086;2024-03-29T09:21:17;13.50;99.90
35445;DHT22;21562;49.476;6.086;2024-03-29T09:23:45;13.40;99.90
35445;DHT22;21562;49.476;6.086;2024-03-29T09:26:11;13.40;99.90
35445;DHT22;21562;49.476;6.086;2024-03-29T09:28:39;13.40;99.90
35445;DHT22;21562;49.476;6.086;2024-03-29T09:31:05;13.40;99.90
35445;DHT22;21562;49.476;6.086;2024-03-29T09:33:31;13.40;99.90
35445;DHT22;21562;49.476;6.086;2024-03-29T09:35:58;13.60;99.90
35445;DHT22;21562;49.476;6.086;2024-03-29T09:38:27;13.60;99.90
35445;DHT22;21562;49.476;6.086;2024-03-29T09:41:14;13.70;99.90
35445;DHT22;21562;49.476;6.086;2024-03-29T09:43:43;13.50;99.90
35445;DHT22;21562;49.476;6.086;2024-03-29T09:46:16;13.50;99.90
35445;DHT22;21562;49.476;6.086;2024-03-29T09:48:43;13.70;99.90
35445;DHT22;21562;49.476;6.086;2024-03-29T09:51:11;13.80;99.90
35445;DHT22;21562;49.476;6.086;2024-03-29T09:53:41;13.50;99.90
35445;DHT22;21562;49.476;6.086;2024-03-29T09:56:08;13.20;99.90
35445;DHT22;21562;49.476;6.086;2024-03-29T09:58:35;13.30;99.90
35445;DHT22;21562;49.476;6.086;2024-03-29T10:01:02;12.90;99.90
35445;DHT22;21562;49.476;6.086;2024-03-29T10:03:30;13.10;99.90
35445;DHT22;21562;49.476;6.086;2024-03-29T10:06:00;12.70;99.90
35445;DHT22;21562;49.476;6.086;2024-03-29T10:08:30;12.40;99.90
35445;DHT22;21562;49.476;6.086;2024-03-29T10:10:59;12.30;99.90
35445;DHT22;21562;49.476;6.086;2024-03-29T10:13:26;12.40;99.90
35445;DHT22;21562;49.476;6.086;2024-03-29T10:15:55;12.20;99.90
35445;DHT22;21562;49.476;6.086;2024-03-29T10:18:26;12.00;99.90
35445;DHT22;21562;49.476;6.086;2024-03-29T10:21:24;11.90;99.90
35445;DHT22;21562;49.476;6.086;2024-03-29T10:23:49;12.10;99.90
35445;DHT22;21562;49.476;6.086;2024-03-29T10:26:16;12.40;99.90
35445;DHT22;21562;49.476;6.086;2024-03-29T10:28:43;12.70;99.90
35445;DHT22;21562;49.476;6.086;2024-03-29T10:31:09;12.80;99.90
35445;DHT22;21562;49.476;6.086;2024-03-29T10:33:34;12.90;99.90
35445;DHT22;21562;49.476;6.086;2024-03-29T10:36:01;13.10;99.90
35445;DHT22;21562;49.476;6.086;2024-03-29T10:38:30;13.00;99.90
35445;DHT22;21562;49.476;6.086;2024-03-29T10:40:56;13.20;99.90
35445;DHT22;21562;49.476;6.086;2024-03-29T10:43:24;13.20;99.90
35445;DHT22;21562;49.476;6.086;2024-03-29T10:45:50;13.30;99.90
35445;DHT22;21562;49.476;6.086;2024-03-29T10:48:16;12.90;99.90
35445;DHT22;21562;49.476;6.086;2024-03-29T10:50:43;12.90;99.90
35445;DHT22;21562;49.476;6.086;2024-03-29T10:53:09;12.90;99.90
35445;DHT22;21562;49.476;6.086;2024-03-29T10:55:38;12.70;99.90
35445;DHT22;21562;49.476;6.086;2024-03-29T10:58:05;12.60;99.90
35445;DHT22;21562;49.476;6.086;2024-03-29T11:00:38;12.40;99.90
35445;DHT22;21562;49.476;6.086;2024-03-29T11:03:13;12.40;99.90
35445;DHT22;21562;49.476;6.086;2024-03-29T11:05:48;12.30;99.90
35445;DHT22;21562;49.476;6.086;2024-03-29T11:08:26;11.90;99.90
35445;DHT22;21562;49.476;6.086;2024-03-29T11:10:55;12.10;99.90
35445;DHT22;21562;49.476;6.086;2024-03-29T11:13:57;12.10;99.90
35445;DHT22;21562;49.476;6.086;2024-03-29T11:16:24;12.10;99.90
35445;DHT22;21562;49.476;6.086;2024-03-29T11:18:51;12.10;99.90
35445;DHT22;21562;49.476;6.086;2024-03-29T11:21:18;11.90;99.90
35445;DHT22;21562;49.476;6.086;2024-03-29T11:23:50;11.80;99.90
35445;DHT22;21562;49.476;6.086;2024-03-29T11:26:18;11.80;99.90
35445;DHT22;21562;49.476;6.086;2024-03-29T11:28:52;12.00;99.90
35445;DHT22;21562;49.476;6.086;2024-03-29T11:31:22;12.30;99.90
35445;DHT22;21562;49.476;6.086;2024-03-29T11:33:48;12.40;99.90
35445;DHT22;21562;49.476;6.086;2024-03-29T11:36:29;12.40;99.90
35445;DHT22;21562;49.476;6.086;2024-03-29T11:38:57;12.40;99.90
35445;DHT22;21562;49.476;6.086;2024-03-29T11:41:24;12.20;99.90
35445;DHT22;21562;49.476;6.086;2024-03-29T11:43:51;12.10;99.90
35445;DHT22;21562;49.476;6.086;2024-03-29T11:46:20;11.80;99.90
35445;DHT22;21562;49.476;6.086;2024-03-29T11:48:46;11.70;99.90
35445;DHT22;21562;49.476;6.086;2024-03-29T11:51:16;11.50;99.90
35445;DHT22;21562;49.476;6.086;2024-03-29T11:53:42;11.80;99.90
35445;DHT22;21562;49.476;6.086;2024-03-29T11:56:09;12.20;99.90
35445;DHT22;21562;49.476;6.086;2024-03-29T11:58:37;12.50;99.90
35445;DHT22;21562;49.476;6.086;2024-03-29T12:01:03;12.90;99.90
35445;DHT22;21562;49.476;6.086;2024-03-29T12:03:30;13.00;99.90
35445;DHT22;21562;49.476;6.086;2024-03-29T12:05:58;13.10;99.90
35445;DHT22;21562;49.476;6.086;2024-03-29T12:08:29;13.00;99.90
35445;DHT22;21562;49.476;6.086;2024-03-29T12:10:57;12.90;99.90
35445;DHT22;21562;49.476;6.086;2024-03-29T12:13:23;12.80;99.90
35445;DHT22;21562;49.476;6.086;2024-03-29T12:15:49;12.60;99.90
35445;DHT22;21562;49.476;6.086;2024-03-29T12:18:15;12.40;99.90
35445;DHT22;21562;49.476;6.086;2024-03-29T12:20:42;12.60;99.90
35445;DHT22;21562;49.476;6.086;2024-03-29T12:23:12;12.70;99.90
35445;DHT22;21562;49.476;6.086;2024-03-29T12:25:39;12.80;99.90
35445;DHT22;21562;49.476;6.086;2024-03-29T12:28:05;13.10;99.90
35445;DHT22;21562;49.476;6.086;2024-03-29T12:30:32;13.20;99.90
35445;DHT22;21562;49.476;6.086;2024-03-29T12:33:05;13.30;99.90
35445;DHT22;21562;49.476;6.086;2024-03-29T12:35:33;13.50;99.90
35445;DHT22;21562;49.476;6.086;2024-03-29T12:38:17;13.60;99.90
35445;DHT22;21562;49.476;6.086;2024-03-29T12:40:44;13.70;99.90
35445;DHT22;21562;49.476;6.086;2024-03-29T12:43:12;13.60;99.90
35445;DHT22;21562;49.476;6.086;2024-03-29T12:45:40;13.70;99.90
35445;DHT22;21562;49.476;6.086;2024-03-29T12:50:35;13.90;99.90
35445;DHT22;21562;49.476;6.086;2024-03-29T12:53:05;13.90;99.90
35445;DHT22;21562;49.476;6.086;2024-03-29T12:55:31;13.80;99.90
35445;DHT22;21562;49.476;6.086;2024-03-29T12:58:01;13.40;99.90
35445;DHT22;21562;49.476;6.086;2024-03-29T13:00:27;13.30;99.90
35445;DHT22;21562;49.476;6.086;2024-03-29T13:02:53;13.10;99.90
35445;DHT22;21562;49.476;6.086;2024-03-29T13:05:19;13.50;99.90
35445;DHT22;21562;49.476;6.086;2024-03-29T13:07:45;13.70;99.90
35445;DHT22;21562;49.476;6.086;2024-03-29T13:10:11;14.00;99.90
35445;DHT22;21562;49.476;6.086;2024-03-29T13:12:47;14.10;99.90
35445;DHT22;21562;49.476;6.086;2024-03-29T13:15:26;14.30;99.90
35445;DHT22;21562;49.476;6.086;2024-03-29T13:17:54;14.10;99.90
35445;DHT22;21562;49.476;6.086;2024-03-29T13:20:21;14.00;99.90
35445;DHT22;21562;49.476;6.086;2024-03-29T13:22:48;14.20;99.90
35445;DHT22;21562;49.476;6.086;2024-03-29T13:25:16;15.20;99.90
35445;DHT22;21562;49.476;6.086;2024-03-29T13:27:44;16.30;99.90
35445;DHT22;21562;49.476;6.086;2024-03-29T13:30:11;16.90;99.90
35445;DHT22;21562;49.476;6.086;2024-03-29T13:32:41;17.10;99.90
35445;DHT22;21562;49.476;6.086;2024-03-29T13:35:08;17.00;34.20
35445;DHT22;21562;49.476;6.086;2024-03-29T13:37:44;16.40;34.40
35445;DHT22;21562;49.476;6.086;2024-03-29T13:40:13;16.10;30.20
35445;DHT22;21562;49.476;6.086;2024-03-29T13:42:40;15.70;45.60
35445;DHT22;21562;49.476;6.086;2024-03-29T13:45:06;15.30;63.20
35445;DHT22;21562;49.476;6.086;2024-03-29T13:47:33;15.00;74.30
35445;DHT22;21562;49.476;6.086;2024-03-29T13:50:00;14.90;96.80
35445;DHT22;21562;49.476;6.086;2024-03-29T13:52:25;14.70;99.90
35445;DHT22;21562;49.476;6.086;2024-03-29T13:54:53;14.50;99.90
35445;DHT22;21562;49.476;6.086;2024-03-29T13:57:19;14.40;99.90
35445;DHT22;21562;49.476;6.086;2024-03-29T13:59:46;14.40;99.90
35445;DHT22;21562;49.476;6.086;2024-03-29T14:02:12;14.30;99.90
35445;DHT22;21562;49.476;6.086;2024-03-29T14:04:43;14.40;99.90
35445;DHT22;21562;49.476;6.086;2024-03-29T14:07:09;14.40;99.90
35445;DHT22;21562;49.476;6.086;2024-03-29T14:09:43;14.40;99.90
35445;DHT22;21562;49.476;6.086;2024-03-29T14:12:09;14.40;99.90
35445;DHT22;21562;49.476;6.086;2024-03-29T14:14:35;14.50;99.90
35445;DHT22;21562;49.476;6.086;2024-03-29T14:17:02;14.60;99.90
35445;DHT22;21562;49.476;6.086;2024-03-29T14:19:39;14.70;99.90
35445;DHT22;21562;49.476;6.086;2024-03-29T14:22:05;14.60;99.90
35445;DHT22;21562;49.476;6.086;2024-03-29T14:24:32;14.60;99.90
35445;DHT22;21562;49.476;6.086;2024-03-29T14:27:04;14.40;99.90
35445;DHT22;21562;49.476;6.086;2024-03-29T14:29:33;14.30;99.90
35445;DHT22;21562;49.476;6.086;2024-03-29T14:31:59;14.30;99.90
35445;DHT22;21562;49.476;6.086;2024-03-29T14:34:26;14.50;99.90
35445;DHT22;21562;49.476;6.086;2024-03-29T14:36:52;14.60;99.90
35445;DHT22;21562;49.476;6.086;2024-03-29T14:39:18;14.70;99.90
35445;DHT22;21562;49.476;6.086;2024-03-29T14:41:47;14.80;99.90
35445;DHT22;21562;49.476;6.086;2024-03-29T14:44:13;14.70;99.90
35445;DHT22;21562;49.476;6.086;2024-03-29T14:46:39;14.80;99.90
35445;DHT22;21562;49.476;6.086;2024-03-29T14:49:05;14.80;99.90
35445;DHT22;21562;49.476;6.086;2024-03-29T14:51:33;15.00;99.90
35445;DHT22;21562;49.476;6.086;2024-03-29T14:53:59;14.90;99.90
35445;DHT22;21562;49.476;6.086;2024-03-29T14:56:25;14.70;99.90
35445;DHT22;21562;49.476;6.086;2024-03-29T14:58:51;15.00;99.90
35445;DHT22;21562;49.476;6.086;2024-03-29T15:01:17;15.70;99.90
35445;DHT22;21562;49.476;6.086;2024-03-29T15:03:42;16.60;99.90
35445;DHT22;21562;49.476;6.086;2024-03-29T15:06:08;17.40;99.90
35445;DHT22;21562;49.476;6.086;2024-03-29T15:08:34;17.90;99.90
35445;DHT22;21562;49.476;6.086;2024-03-29T15:11:00;18.80;49.30
35445;DHT22;21562;49.476;6.086;2024-03-29T15:13:26;18.90;26.50
35445;DHT22;21562;49.476;6.086;2024-03-29T15:16:00;19.20;23.70
35445;DHT22;21562;49.476;6.086;2024-03-29T15:18:26;19.30;12.00
35445;DHT22;21562;49.476;6.086;2024-03-29T15:20:59;19.60;1.00
35445;DHT22;21562;49.476;6.086;2024-03-29T15:23:26;20.00;1.00
35445;DHT22;21562;49.476;6.086;2024-03-29T15:25:53;20.20;1.00
35445;DHT22;21562;49.476;6.086;2024-03-29T15:28:20;20.30;1.00
35445;DHT22;21562;49.476;6.086;2024-03-29T15:31:13;20.30;1.00
35445;DHT22;21562;49.476;6.086;2024-03-29T15:33:39;20.40;1.00
35445;DHT22;21562;49.476;6.086;2024-03-29T15:36:05;20.10;1.00
35445;DHT22;21562;49.476;6.086;2024-03-29T15:38:34;19.80;1.00